Time;durP1;ratioP1;P1;durP2;ratioP2;P2;SDS_P1;SDS_P2;PMS_P1;PMS_P2;Temp;Humidity;BMP_temperature;BMP_pressure;BME280_temperature;BME280_humidity;BME280_pressure;Samples;Min_cycle;Max_cycle;Signal;HPM_P1;HPM_P2
2023/11/30 00:01:48;;;;;;;8.27;4.75;;;;;;;1.08;70.88;97327.22;4965608;28;103190;-66
2023/11/30 00:04:16;;;;;;;5.88;3.85;;;;;;;1.08;71.04;97323.81;4980575;28;102692;-68
2023/11/30 00:06:46;;;;;;;5.60;4.20;;;;;;;1.07;70.77;97319.56;4980730;28;102831;-67
2023/11/30 00:09:17;;;;;;;6.40;3.97;;;;;;;1.08;71.61;97322.03;4958349;28;103713;-68
2023/11/30 00:11:45;;;;;;;5.03;3.28;;;;;;;1.10;71.55;97320.09;4985750;28;103304;-68
2023/11/30 00:14:13;;;;;;;7.43;5.20;;;;;;;1.09;71.19;97317.66;4983812;28;103101;-68
2023/11/30 00:16:41;;;;;;;6.80;4.25;;;;;;;1.09;71.47;97323.66;4980518;28;102688;-68
2023/11/30 00:19:09;;;;;;;6.53;4.47;;;;;;;0.99;70.95;97309.84;4980771;28;104334;-68
2023/11/30 00:21:38;;;;;;;6.80;4.28;;;;;;;0.96;71.51;97315.34;4983463;28;103571;-68
2023/11/30 00:24:07;;;;;;;6.80;4.75;;;;;;;0.99;71.66;97302.00;4980982;28;102586;-68
2023/11/30 00:26:35;;;;;;;6.63;3.95;;;;;;;0.89;71.63;97307.28;4970143;28;102826;-67
2023/11/30 00:29:04;;;;;;;6.13;4.40;;;;;;;0.90;71.68;97310.69;4979610;28;103245;-68
2023/11/30 00:31:32;;;;;;;6.40;4.60;;;;;;;0.92;71.44;97300.94;4979842;28;103403;-68
2023/11/30 00:34:00;;;;;;;6.80;4.78;;;;;;;0.87;71.70;97300.56;4963060;28;102673;-68
2023/11/30 00:36:33;;;;;;;6.68;4.13;;;;;;;0.88;72.09;97296.97;4983336;28;103130;-67
2023/11/30 00:39:01;;;;;;;9.10;5.75;;;;;;;0.89;71.38;97298.59;4966228;28;103419;-68
2023/11/30 00:41:30;;;;;;;7.70;4.85;;;;;;;0.87;71.74;97292.72;4983825;28;103787;-67
2023/11/30 00:43:59;;;;;;;8.77;5.40;;;;;;;0.85;71.80;97285.03;4963913;28;102609;-63
2023/11/30 00:46:27;;;;;;;7.60;5.05;;;;;;;0.82;71.86;97277.50;4979026;28;102651;-63
2023/11/30 00:48:55;;;;;;;8.00;4.97;;;;;;;0.86;71.88;97271.03;4982256;28;103525;-64
2023/11/30 00:51:23;;;;;;;5.93;4.13;;;;;;;0.91;71.79;97275.84;4981844;28;103453;-63
2023/11/30 00:53:51;;;;;;;7.13;4.97;;;;;;;0.93;71.65;97276.50;4965076;28;102701;-63
2023/11/30 00:56:19;;;;;;;8.48;4.45;;;;;;;0.95;71.64;97274.59;4983382;28;102701;-64
2023/11/30 00:58:49;;;;;;;9.20;5.43;;;;;;;0.83;71.48;97272.13;4980403;28;103720;-63
2023/11/30 01:01:17;;;;;;;7.30;4.75;;;;;;;0.80;71.53;97271.63;4962592;28;103515;-63
2023/11/30 01:03:45;;;;;;;6.60;4.20;;;;;;;0.79;71.96;97270.78;4984056;28;102604;-63
2023/11/30 01:06:14;;;;;;;9.18;5.90;;;;;;;0.76;71.80;97260.66;4977891;28;102992;-63
2023/11/30 01:08:43;;;;;;;6.60;4.65;;;;;;;0.78;72.05;97274.34;4970024;28;104273;-63
2023/11/30 01:11:12;;;;;;;6.70;4.38;;;;;;;0.82;72.53;97273.09;4986375;22;103119;-63
2023/11/30 01:13:40;;;;;;;7.63;4.55;;;;;;;0.83;71.95;97276.53;4991583;28;102618;-63
2023/11/30 01:16:10;;;;;;;8.32;6.45;;;;;;;0.77;71.82;97270.13;4991985;28;104036;-63
2023/11/30 01:18:40;;;;;;;8.32;5.53;;;;;;;0.67;72.03;97274.53;4974505;28;104269;-62
2023/11/30 01:21:08;;;;;;;8.88;6.45;;;;;;;0.64;71.54;97287.81;4994264;28;103108;-63
2023/11/30 01:23:37;;;;;;;9.77;6.57;;;;;;;0.45;72.59;97291.31;4976715;28;102685;-63
2023/11/30 01:26:06;;;;;;;8.95;5.07;;;;;;;0.46;72.90;97291.16;4977803;28;103154;-63
2023/11/30 01:28:34;;;;;;;8.80;6.00;;;;;;;0.44;72.68;97284.44;4993829;28;102987;-62
2023/11/30 01:31:02;;;;;;;8.52;5.72;;;;;;;0.48;72.87;97278.78;4993809;28;103293;-63
2023/11/30 01:33:32;;;;;;;9.98;7.03;;;;;;;0.40;73.05;97272.66;4975210;28;102688;-63
2023/11/30 01:36:00;;;;;;;8.07;6.13;;;;;;;0.36;72.71;97268.69;4993889;28;103067;-68
2023/11/30 01:38:33;;;;;;;9.20;6.03;;;;;;;0.41;73.46;97275.13;4995096;28;103199;-68
2023/11/30 01:41:01;;;;;;;9.17;5.37;;;;;;;0.41;73.28;97264.69;4974744;28;103201;-64
2023/11/30 01:43:29;;;;;;;7.95;5.53;;;;;;;0.47;73.10;97274.56;4975401;28;102851;-63
2023/11/30 01:45:58;;;;;;;10.63;5.30;;;;;;;0.49;72.66;97264.81;4991257;28;102903;-63
2023/11/30 01:48:34;;;;;;;9.50;6.40;;;;;;;0.55;72.75;97278.25;4991460;28;103224;-63
2023/11/30 01:51:05;;;;;;;7.60;5.47;;;;;;;0.57;72.85;97273.72;4993470;28;103320;-63
2023/11/30 01:53:35;;;;;;;9.40;5.95;;;;;;;0.56;72.56;97275.50;4994066;28;103016;-63
2023/11/30 01:56:04;;;;;;;7.20;5.30;;;;;;;0.56;72.57;97266.88;4991979;28;102954;-68
2023/11/30 01:58:33;;;;;;;8.85;6.20;;;;;;;0.61;72.33;97264.66;4989181;28;103201;-68
2023/11/30 02:01:02;;;;;;;9.95;6.22;;;;;;;0.61;72.57;97251.63;4974707;28;103228;-68
2023/11/30 02:03:31;;;;;;;7.85;5.75;;;;;;;0.61;72.47;97251.63;4975079;28;102908;-67
2023/11/30 02:06:01;;;;;;;8.95;5.25;;;;;;;0.61;72.69;97256.84;4978332;28;103025;-68
2023/11/30 02:08:29;;;;;;;9.82;6.63;;;;;;;0.59;72.50;97261.38;4977898;28;104476;-63
2023/11/30 02:10:58;;;;;;;7.45;5.05;;;;;;;0.51;72.52;97266.47;4994474;28;103275;-63
2023/11/30 02:13:26;;;;;;;9.80;6.00;;;;;;;0.47;72.41;97251.13;4994188;28;103057;-62
2023/11/30 02:15:55;;;;;;;10.15;7.55;;;;;;;0.46;72.58;97241.66;4977267;28;102769;-62
2023/11/30 02:18:23;;;;;;;13.10;6.88;;;;;;;0.36;72.65;97225.22;4978390;28;103866;-62
2023/11/30 02:20:51;;;;;;;10.95;6.10;;;;;;;0.38;73.20;97223.31;4978533;28;103080;-62
2023/11/30 02:23:26;;;;;;;9.73;7.03;;;;;;;0.35;72.96;97220.97;4979020;28;102761;-63
2023/11/30 02:25:54;;;;;;;12.45;8.50;;;;;;;0.27;72.75;97223.47;4977089;28;103106;-62
2023/11/30 02:28:22;;;;;;;11.68;7.63;;;;;;;0.25;73.33;97223.59;4978288;28;104046;-63
2023/11/30 02:30:51;;;;;;;9.73;6.53;;;;;;;0.26;73.32;97221.81;4979083;28;103261;-63
2023/11/30 02:33:20;;;;;;;12.50;8.23;;;;;;;0.32;73.33;97218.66;4970494;28;103104;-63
2023/11/30 02:35:48;;;;;;;14.38;8.80;;;;;;;0.32;73.25;97222.06;4995177;28;103137;-63
2023/11/30 02:38:16;;;;;;;11.00;7.65;;;;;;;0.30;73.14;97234.44;4997331;28;103136;-63
2023/11/30 02:40:46;;;;;;;11.13;7.75;;;;;;;0.24;73.05;97218.53;4995739;28;103368;-63
2023/11/30 02:43:14;;;;;;;9.70;6.20;;;;;;;0.24;73.55;97224.56;4977473;28;102831;-62
2023/11/30 02:45:42;;;;;;;7.93;6.03;;;;;;;0.25;73.46;97215.78;4976016;28;103885;-67
2023/11/30 02:48:10;;;;;;;10.55;6.43;;;;;;;0.18;73.24;97219.09;4996847;28;103809;-67
2023/11/30 02:50:38;;;;;;;10.57;6.95;;;;;;;0.16;73.49;97214.03;4963433;28;103331;-69
2023/11/30 02:53:06;;;;;;;11.02;7.38;;;;;;;0.21;74.13;97206.63;4996990;28;103238;-68
2023/11/30 02:55:34;;;;;;;12.18;7.75;;;;;;;0.26;73.67;97208.78;4969251;28;103934;-68
2023/11/30 02:58:04;;;;;;;10.93;7.68;;;;;;;0.26;73.57;97206.19;4972336;28;103504;-68
2023/11/30 03:00:32;;;;;;;9.75;6.72;;;;;;;0.12;73.34;97215.25;4996019;28;103682;-68
2023/11/30 03:03:00;;;;;;;15.10;9.45;;;;;;;0.16;73.61;97212.22;4973898;28;102709;-68
2023/11/30 03:05:28;;;;;;;10.90;6.90;;;;;;;0.21;74.03;97213.59;4974087;28;103532;-68
2023/11/30 03:07:56;;;;;;;11.02;8.10;;;;;;;0.26;73.63;97207.03;4968226;28;104067;-68
2023/11/30 03:10:24;;;;;;;11.07;7.88;;;;;;;0.26;73.68;97216.59;4977160;28;103486;-68
2023/11/30 03:12:52;;;;;;;10.30;7.95;;;;;;;0.22;73.38;97220.44;4977381;28;103199;-68
2023/11/30 03:15:22;;;;;;;11.60;7.55;;;;;;;0.21;73.60;97213.59;4976510;28;105080;-68
2023/11/30 03:17:50;;;;;;;11.25;7.10;;;;;;;0.19;73.81;97203.31;4979161;28;103385;-63
2023/11/30 03:20:18;;;;;;;13.68;8.30;;;;;;;0.21;74.12;97203.19;4979822;28;104364;-68
2023/11/30 03:22:46;;;;;;;9.75;6.65;;;;;;;0.16;74.04;97194.00;4978724;28;102830;-68
2023/11/30 03:25:16;;;;;;;10.02;6.50;;;;;;;0.16;73.96;97193.19;4994830;28;102977;-68
2023/11/30 03:27:44;;;;;;;11.15;7.10;;;;;;;0.22;74.08;97197.00;4983541;28;103322;-68
2023/11/30 03:30:12;;;;;;;8.13;6.40;;;;;;;0.23;74.27;97190.84;4978915;28;103397;-67
2023/11/30 03:32:42;;;;;;;15.75;10.48;;;;;;;0.21;73.39;97177.13;4976090;28;102917;-68
2023/11/30 03:35:10;;;;;;;10.05;7.38;;;;;;;0.08;74.41;97178.25;4975355;28;103100;-68
2023/11/30 03:37:40;;;;;;;11.25;8.02;;;;;;;0.10;74.46;97170.31;4995548;28;103958;-68
2023/11/30 03:40:09;;;;;;;9.15;6.60;;;;;;;0.07;74.42;97163.59;4977482;28;103226;-68
2023/11/30 03:42:38;;;;;;;11.05;7.05;;;;;;;0.14;74.60;97169.06;4977252;28;103892;-68
2023/11/30 03:45:07;;;;;;;11.40;8.82;;;;;;;0.13;74.28;97157.84;4977281;28;104328;-68
2023/11/30 03:47:35;;;;;;;13.05;9.43;;;;;;;0.10;74.44;97159.91;4977199;28;103192;-68
2023/11/30 03:50:05;;;;;;;13.80;9.63;;;;;;;0.16;74.69;97162.75;4996468;28;103883;-68
2023/11/30 03:52:33;;;;;;;12.25;8.32;;;;;;;0.16;74.85;97160.16;4989100;28;102721;-67
2023/11/30 03:55:01;;;;;;;11.32;7.70;;;;;;;0.12;74.73;97161.41;4996588;28;102999;-68
2023/11/30 03:57:30;;;;;;;11.68;7.80;;;;;;;0.16;74.99;97159.34;4996453;28;103225;-68
2023/11/30 03:59:58;;;;;;;12.43;7.47;;;;;;;0.18;74.56;97161.81;4978142;28;103161;-68
2023/11/30 04:02:26;;;;;;;11.90;8.45;;;;;;;0.20;74.33;97150.28;4973888;28;103261;-63
2023/11/30 04:04:54;;;;;;;11.35;8.60;;;;;;;0.16;74.70;97141.13;4977278;28;104187;-63
2023/11/30 04:07:29;;;;;;;14.40;10.88;;;;;;;-0.01;74.29;97132.25;4994373;28;103934;-63
2023/11/30 04:09:57;;;;;;;14.25;10.23;;;;;;;-0.14;74.75;97139.50;4974158;28;103465;-66
2023/11/30 04:12:26;;;;;;;16.20;10.93;;;;;;;-0.26;75.21;97136.22;4992232;28;102701;-66
2023/11/30 04:14:54;;;;;;;15.07;10.73;;;;;;;-0.28;75.74;97125.97;4992536;28;103208;-66
2023/11/30 04:17:23;;;;;;;11.07;8.23;;;;;;;-0.24;75.57;97122.13;4991490;28;103230;-66
2023/11/30 04:19:51;;;;;;;15.25;9.07;;;;;;;-0.11;75.73;97131.44;4992982;28;103254;-66
2023/11/30 04:22:19;;;;;;;14.30;9.55;;;;;;;-0.04;75.46;97132.50;4978513;28;102913;-65
2023/11/30 04:24:47;;;;;;;13.70;9.50;;;;;;;0.06;75.15;97125.50;4995524;28;102605;-66
2023/11/30 04:27:15;;;;;;;12.95;9.95;;;;;;;0.09;74.66;97112.22;4974815;28;103476;-66
2023/11/30 04:29:44;;;;;;;14.15;10.15;;;;;;;0.09;74.87;97109.63;4976459;28;103394;-66
2023/11/30 04:32:12;;;;;;;11.55;8.90;;;;;;;0.07;74.54;97108.94;4976851;28;102720;-66
2023/11/30 04:34:40;;;;;;;14.07;9.80;;;;;;;0.07;74.91;97103.72;4971800;28;102698;-66
2023/11/30 04:37:08;;;;;;;13.18;9.82;;;;;;;0.10;75.49;97100.81;4978918;28;103242;-66
2023/11/30 04:39:37;;;;;;;14.20;10.30;;;;;;;0.16;74.65;97105.47;4977285;28;103114;-66
2023/11/30 04:42:07;;;;;;;9.77;7.95;;;;;;;0.12;74.75;97101.53;4996302;28;102631;-66
2023/11/30 04:44:35;;;;;;;10.77;7.70;;;;;;;0.15;75.29;97106.44;4995686;28;102634;-66
2023/11/30 04:47:04;;;;;;;12.73;8.90;;;;;;;0.21;75.21;97099.84;4992320;28;103628;-66
2023/11/30 04:49:33;;;;;;;10.73;6.80;;;;;;;0.22;74.43;97108.47;4975880;28;103339;-66
2023/11/30 04:52:01;;;;;;;12.38;7.53;;;;;;;0.24;74.46;97103.97;4976610;28;102792;-66
2023/11/30 04:54:29;;;;;;;9.98;6.78;;;;;;;0.27;74.56;97108.88;4994431;28;104616;-66
2023/11/30 04:56:59;;;;;;;9.23;7.03;;;;;;;0.32;74.52;97106.66;4967999;28;103276;-63
2023/11/30 04:59:28;;;;;;;10.63;7.00;;;;;;;0.31;74.30;97099.81;4972448;28;103830;-63
2023/11/30 05:01:56;;;;;;;9.90;6.60;;;;;;;0.32;74.11;97101.47;4991756;28;102721;-63
2023/11/30 05:04:24;;;;;;;8.10;6.18;;;;;;;0.31;73.83;97095.44;4988687;28;103695;-64
2023/11/30 05:06:52;;;;;;;8.68;6.10;;;;;;;0.27;73.74;97093.25;4991889;28;104116;-63
2023/11/30 05:09:20;;;;;;;9.13;6.25;;;;;;;0.19;73.84;97082.72;4972771;28;103369;-63
2023/11/30 05:11:48;;;;;;;8.77;6.38;;;;;;;0.11;73.81;97084.25;4992991;28;103166;-63
2023/11/30 05:14:16;;;;;;;12.85;9.10;;;;;;;0.16;74.59;97100.28;4992590;28;103844;-63
2023/11/30 05:16:45;;;;;;;12.02;8.70;;;;;;;0.15;74.57;97096.03;4991945;28;103797;-63
2023/11/30 05:19:13;;;;;;;13.63;9.13;;;;;;;0.05;73.80;97099.63;4993394;28;103029;-66
2023/11/30 05:21:41;;;;;;;10.52;7.95;;;;;;;0.02;74.43;97102.50;4992126;28;102812;-66
2023/11/30 05:24:09;;;;;;;10.30;7.35;;;;;;;-0.03;74.90;97092.50;4990718;28;102661;-67
2023/11/30 05:26:37;;;;;;;11.52;8.93;;;;;;;-0.10;74.41;97091.44;4992727;28;103309;-66
2023/11/30 05:29:05;;;;;;;13.93;9.68;;;;;;;-0.18;75.09;97079.94;4990724;28;103248;-66
2023/11/30 05:31:34;;;;;;;10.85;8.85;;;;;;;-0.35;75.84;97078.06;4992642;28;103128;-66
2023/11/30 05:34:03;;;;;;;10.75;8.30;;;;;;;-0.30;75.62;97080.22;4992831;28;103877;-66
2023/11/30 05:36:31;;;;;;;13.65;9.70;;;;;;;-0.44;76.00;97089.31;4974992;28;103256;-67
2023/11/30 05:38:59;;;;;;;10.13;7.32;;;;;;;-0.37;76.02;97100.78;4992203;28;103221;-66
2023/11/30 05:41:28;;;;;;;10.23;6.90;;;;;;;-0.35;76.01;97098.88;4976156;28;102645;-66
2023/11/30 05:43:58;;;;;;;10.43;7.47;;;;;;;-0.26;75.70;97092.84;4994170;28;103816;-66
2023/11/30 05:46:26;;;;;;;10.20;7.32;;;;;;;-0.23;75.89;97096.94;4978063;28;102991;-66
2023/11/30 05:48:54;;;;;;;16.40;10.38;;;;;;;-0.31;75.35;97104.59;4979393;28;103036;-65
2023/11/30 05:51:27;;;;;;;12.43;9.13;;;;;;;-0.41;75.97;97094.22;4997065;28;102732;-66
2023/11/30 05:53:57;;;;;;;14.38;9.98;;;;;;;-0.49;76.31;97096.69;4979056;28;103145;-65
2023/11/30 05:56:25;;;;;;;13.13;8.73;;;;;;;-0.41;76.29;97092.44;4994070;28;103461;-65
2023/11/30 05:58:53;;;;;;;13.20;9.98;;;;;;;-0.41;75.99;97079.44;4994033;28;103267;-65
2023/11/30 06:01:21;;;;;;;15.32;8.85;;;;;;;-0.47;76.27;97076.56;4996216;28;103431;-65
2023/11/30 06:03:50;;;;;;;10.95;7.35;;;;;;;-0.39;76.11;97077.50;4992034;28;102676;-66
2023/11/30 06:06:18;;;;;;;11.05;7.82;;;;;;;-0.31;76.05;97079.44;4997202;28;103332;-66
2023/11/30 06:08:48;;;;;;;10.43;6.95;;;;;;;-0.24;75.61;97070.09;4995464;28;104730;-66
2023/11/30 06:11:17;;;;;;;9.30;6.63;;;;;;;-0.17;75.59;97071.19;4997093;28;102850;-69
2023/11/30 06:13:46;;;;;;;10.85;8.02;;;;;;;-0.12;75.73;97062.94;4994044;28;102736;-68
2023/11/30 06:16:19;;;;;;;10.95;7.80;;;;;;;-0.09;75.27;97060.06;4995000;28;103604;-68
2023/11/30 06:18:47;;;;;;;12.32;7.35;;;;;;;-0.12;75.54;97062.13;4998472;28;103275;-68
2023/11/30 06:21:15;;;;;;;12.20;7.65;;;;;;;-0.07;75.34;97065.13;4997615;28;102671;-67
2023/11/30 06:23:43;;;;;;;11.32;8.02;;;;;;;-0.02;75.43;97062.94;4997892;28;103440;-67
2023/11/30 06:26:13;;;;;;;8.45;6.57;;;;;;;-0.05;75.10;97058.00;4996134;28;104000;-68
2023/11/30 06:28:41;;;;;;;11.30;8.10;;;;;;;0.00;75.41;97045.41;4995448;28;103356;-66
2023/11/30 06:31:09;;;;;;;17.00;7.63;;;;;;;0.07;75.11;97050.84;4993537;28;102679;-67
2023/11/30 06:33:37;;;;;;;10.57;7.82;;;;;;;0.05;74.05;97048.38;4997455;28;102820;-67
2023/11/30 06:36:06;;;;;;;12.73;9.27;;;;;;;-0.15;74.17;97046.81;4994561;28;104155;-67
2023/11/30 06:38:34;;;;;;;9.82;6.97;;;;;;;-0.20;74.92;97045.44;4993705;28;103303;-67
2023/11/30 06:41:02;;;;;;;8.52;5.75;;;;;;;-0.10;74.77;97050.63;4991286;28;102768;-67
2023/11/30 06:43:32;;;;;;;10.02;6.15;;;;;;;-0.04;74.77;97044.00;4993436;28;103206;-66
2023/11/30 06:46:00;;;;;;;11.57;7.50;;;;;;;-0.07;74.25;97028.69;4993441;28;103281;-68
2023/11/30 06:48:28;;;;;;;10.35;7.47;;;;;;;-0.19;74.42;97026.25;4993499;28;103211;-68
2023/11/30 06:50:56;;;;;;;10.30;8.57;;;;;;;-0.38;74.65;97031.50;4992690;28;102889;-68
2023/11/30 06:53:23;;;;;;;10.15;6.82;;;;;;;-0.53;75.47;97034.53;4994271;28;102648;-67
2023/11/30 06:55:51;;;;;;;10.48;6.85;;;;;;;-0.62;75.96;97040.56;4993363;28;103264;-68
2023/11/30 06:58:19;;;;;;;9.95;7.18;;;;;;;-0.64;76.41;97034.72;4993523;28;103274;-67
2023/11/30 07:00:50;;;;;;;8.55;6.22;;;;;;;-0.48;76.57;97035.94;4976861;28;102764;-67
2023/11/30 07:03:18;;;;;;;9.98;6.10;;;;;;;-0.34;75.74;97040.69;4976886;28;102955;-65
2023/11/30 07:05:46;;;;;;;8.73;5.43;;;;;;;-0.24;75.76;97038.88;4989215;28;104568;-64
2023/11/30 07:08:14;;;;;;;6.07;4.40;;;;;;;-0.13;75.43;97047.47;4993813;28;103265;-64
2023/11/30 07:10:42;;;;;;;5.90;4.15;;;;;;;-0.05;75.42;97040.59;4993343;28;103191;-64
2023/11/30 07:13:10;;;;;;;6.97;4.70;;;;;;;0.06;75.43;97039.59;4996564;28;104060;-63
2023/11/30 07:15:38;;;;;;;9.30;5.80;;;;;;;0.06;74.29;97028.38;4994389;28;102998;-65
2023/11/30 07:18:07;;;;;;;8.30;5.57;;;;;;;0.08;74.75;97027.28;4995033;28;103170;-64
2023/11/30 07:20:37;;;;;;;9.40;6.50;;;;;;;0.08;74.07;97019.47;4998020;28;103121;-67
2023/11/30 07:23:05;;;;;;;9.25;7.22;;;;;;;-0.21;74.78;97015.19;4997755;28;104663;-68
2023/11/30 07:25:33;;;;;;;9.98;6.72;;;;;;;-0.39;75.95;97016.88;4998665;28;102860;-68
2023/11/30 07:28:01;;;;;;;12.10;6.35;;;;;;;-0.45;76.32;97030.44;4996738;28;103223;-67
2023/11/30 07:30:29;;;;;;;10.25;6.22;;;;;;;-0.46;76.20;97036.59;4996482;28;102917;-67
2023/11/30 07:32:57;;;;;;;7.93;6.25;;;;;;;-0.43;76.11;97038.91;4995548;28;102696;-64
2023/11/30 07:35:27;;;;;;;9.25;6.40;;;;;;;-0.46;76.02;97034.00;4994612;28;102995;-64
2023/11/30 07:37:55;;;;;;;8.70;6.28;;;;;;;-0.54;76.14;97032.91;4994153;28;103279;-67
2023/11/30 07:40:23;;;;;;;8.93;5.20;;;;;;;-0.42;76.52;97037.94;4993886;28;102612;-64
2023/11/30 07:42:51;;;;;;;8.50;5.57;;;;;;;-0.24;76.30;97038.88;4993352;28;103872;-66
2023/11/30 07:45:19;;;;;;;7.18;4.95;;;;;;;-0.11;76.04;97042.97;4993183;28;103252;-67
2023/11/30 07:47:47;;;;;;;6.68;4.68;;;;;;;-0.01;75.87;97036.75;4976649;28;103430;-66
2023/11/30 07:50:16;;;;;;;10.20;6.35;;;;;;;0.09;75.30;97038.50;4991448;28;102669;-64
2023/11/30 07:52:45;;;;;;;9.43;5.78;;;;;;;0.09;75.19;97036.72;4992968;28;102880;-64
2023/11/30 07:55:16;;;;;;;8.95;5.72;;;;;;;0.16;75.10;97040.38;4992546;28;103183;-64
2023/11/30 07:57:44;;;;;;;8.15;5.38;;;;;;;0.25;75.24;97030.06;4989689;28;103289;-64
2023/11/30 08:00:12;;;;;;;6.03;4.78;;;;;;;0.36;75.19;97029.06;4990916;28;102912;-64
2023/11/30 08:02:40;;;;;;;9.13;6.50;;;;;;;0.42;75.12;97029.31;4992054;28;102696;-64
2023/11/30 08:05:09;;;;;;;12.82;6.97;;;;;;;0.46;74.14;97028.06;4993947;28;103297;-64
2023/11/30 08:07:39;;;;;;;10.57;7.00;;;;;;;0.33;73.90;97015.38;4973385;28;104410;-64
2023/11/30 08:10:10;;;;;;;11.85;7.95;;;;;;;-0.06;75.70;97009.53;4992605;28;102650;-66
2023/11/30 08:12:38;;;;;;;8.55;6.55;;;;;;;-0.21;76.58;97007.38;4990763;28;102761;-69
2023/11/30 08:15:07;;;;;;;10.50;7.63;;;;;;;-0.16;76.26;97006.94;4970767;28;103239;-66
2023/11/30 08:17:38;;;;;;;10.55;6.57;;;;;;;0.09;75.29;97008.09;4990250;28;103190;-66
2023/11/30 08:20:09;;;;;;;9.00;6.00;;;;;;;0.14;75.05;97018.06;4991379;28;102992;-64
2023/11/30 08:22:37;;;;;;;9.43;5.50;;;;;;;0.29;74.87;97023.63;4990954;28;102678;-64
2023/11/30 08:25:11;;;;;;;10.70;7.15;;;;;;;0.30;73.85;97033.06;4991767;28;103999;-64
2023/11/30 08:27:39;;;;;;;10.30;5.80;;;;;;;0.42;74.20;97021.50;4993007;28;103287;-66
2023/11/30 08:30:18;;;;;;;8.73;5.95;;;;;;;0.59;74.43;97014.69;5085546;27;102643;-68
2023/11/30 08:32:46;;;;;;;6.72;4.70;;;;;;;0.68;74.12;97012.16;5067242;27;102623;-68
2023/11/30 08:35:14;;;;;;;8.73;5.43;;;;;;;0.77;73.95;97011.28;5066023;27;103221;-67
2023/11/30 08:37:42;;;;;;;11.40;6.80;;;;;;;0.86;73.96;97001.75;5064666;27;104002;-66
2023/11/30 08:40:11;;;;;;;8.02;6.03;;;;;;;0.86;73.69;96988.72;5072951;27;102646;-66
2023/11/30 08:42:39;;;;;;;8.05;5.57;;;;;;;0.91;73.85;96991.69;5071667;27;103890;-64
2023/11/30 08:45:10;;;;;;;13.73;8.05;;;;;;;0.99;73.52;96999.59;5047675;27;103818;-64
2023/11/30 08:47:41;;;;;;;13.07;8.55;;;;;;;1.00;72.73;96998.63;5064304;27;103190;-67
2023/11/30 08:50:10;;;;;;;13.32;8.05;;;;;;;0.93;72.56;97000.19;5072594;27;102795;-65
2023/11/30 08:52:38;;;;;;;12.77;7.50;;;;;;;0.68;74.33;96996.53;5064033;27;102672;-64
2023/11/30 08:55:06;;;;;;;11.90;7.63;;;;;;;0.93;73.70;97008.84;5053394;27;104689;-64
2023/11/30 08:57:34;;;;;;;14.23;7.88;;;;;;;0.99;72.71;97002.19;5047360;27;104214;-67
2023/11/30 09:00:05;;;;;;;13.55;8.02;;;;;;;0.82;73.11;96996.00;5052529;27;102639;-67
2023/11/30 09:02:36;;;;;;;10.82;7.88;;;;;;;0.89;73.35;96999.69;5064001;27;103097;-67
2023/11/30 09:05:07;;;;;;;7.38;5.82;;;;;;;1.06;73.16;96985.00;5067720;27;104389;-66
2023/11/30 09:07:36;;;;;;;12.52;8.65;;;;;;;1.12;71.84;96992.19;5069374;27;103236;-67
2023/11/30 09:10:05;;;;;;;12.50;8.05;;;;;;;1.11;73.17;96990.59;5066708;27;102568;-66
2023/11/30 09:12:35;;;;;;;10.85;8.10;;;;;;;1.02;72.61;96983.63;5067018;27;102734;-67
2023/11/30 09:15:08;;;;;;;13.75;9.43;;;;;;;0.92;72.96;96994.16;5070829;27;104123;-67
2023/11/30 09:17:36;;;;;;;19.70;9.83;;;;;;;0.79;72.81;96985.91;5069326;27;103218;-67
2023/11/30 09:20:08;;;;;;;16.33;9.02;;;;;;;0.81;73.71;96990.00;5074942;27;102581;-66
2023/11/30 09:22:36;;;;;;;12.52;7.90;;;;;;;1.01;73.23;96976.81;5070305;27;102959;-65
2023/11/30 09:25:05;;;;;;;13.02;8.45;;;;;;;0.86;73.05;96989.53;5052140;27;104586;-67
2023/11/30 09:27:33;;;;;;;14.80;9.27;;;;;;;0.81;73.04;96997.81;5074494;27;103279;-66
2023/11/30 09:30:02;;;;;;;14.68;9.02;;;;;;;0.96;72.68;97002.50;5065118;27;102937;-64
2023/11/30 09:32:30;;;;;;;13.48;8.85;;;;;;;0.97;73.02;97002.34;5069247;27;103010;-65
2023/11/30 09:34:58;;;;;;;13.45;8.77;;;;;;;0.86;73.29;96993.94;5078247;27;103342;-67
2023/11/30 09:37:28;;;;;;;11.57;7.68;;;;;;;0.90;72.96;96993.47;5069115;27;103372;-64
2023/11/30 09:39:56;;;;;;;15.52;8.55;;;;;;;0.73;73.66;96997.72;5063578;27;102637;-67
2023/11/30 09:42:26;;;;;;;12.10;7.43;;;;;;;0.80;73.64;96988.34;5066972;27;102912;-66
2023/11/30 09:44:59;;;;;;;10.35;7.55;;;;;;;0.79;74.03;96989.31;5036296;27;103451;-67
2023/11/30 09:47:30;;;;;;;10.27;7.10;;;;;;;0.82;74.10;96988.19;5041080;27;103172;-64
2023/11/30 09:50:00;;;;;;;11.70;7.25;;;;;;;0.68;74.88;96988.69;5063875;27;102623;-65
2023/11/30 09:52:31;;;;;;;10.77;7.20;;;;;;;0.76;74.47;96989.63;5028739;27;102639;-64
2023/11/30 09:55:00;;;;;;;12.07;6.88;;;;;;;0.80;74.56;96985.75;5056339;27;103075;-64
2023/11/30 09:57:28;;;;;;;9.20;6.72;;;;;;;0.85;74.42;96982.66;5049197;27;103905;-64
2023/11/30 09:59:58;;;;;;;11.73;7.18;;;;;;;0.68;74.39;96976.47;5038365;27;102670;-64
2023/11/30 10:02:27;;;;;;;11.85;7.35;;;;;;;0.77;74.82;96980.84;5059104;27;104612;-64
2023/11/30 10:04:56;;;;;;;9.05;6.32;;;;;;;0.84;74.24;96975.84;5057205;27;103223;-64
2023/11/30 10:07:24;;;;;;;11.77;8.25;;;;;;;0.90;74.38;96979.63;5054711;27;102973;-64
2023/11/30 10:09:55;;;;;;;10.02;6.85;;;;;;;0.90;74.30;96964.00;5038770;27;102896;-64
2023/11/30 10:12:24;;;;;;;10.07;6.43;;;;;;;0.85;74.67;96961.00;5037148;27;103957;-65
2023/11/30 10:15:00;;;;;;;10.93;7.80;;;;;;;1.12;73.49;96955.69;5057425;27;103725;-65
2023/11/30 10:17:29;;;;;;;10.55;7.13;;;;;;;1.28;74.11;96941.13;5057739;27;103197;-64
2023/11/30 10:19:57;;;;;;;9.18;6.70;;;;;;;1.36;73.72;96949.00;5056915;27;102520;-66
2023/11/30 10:22:26;;;;;;;10.85;7.35;;;;;;;1.42;73.34;96937.16;5060442;27;102594;-64
2023/11/30 10:24:57;;;;;;;11.27;8.27;;;;;;;1.44;73.16;96930.81;5057098;27;103956;-68
2023/11/30 10:27:26;;;;;;;8.75;5.88;;;;;;;1.70;73.14;96934.38;5038980;27;103394;-68
2023/11/30 10:30:01;;;;;;;10.75;7.85;;;;;;;1.92;72.18;96922.56;5057471;27;102556;-67
2023/11/30 10:32:31;;;;;;;9.60;6.38;;;;;;;2.07;71.92;96915.78;5058667;27;102886;-65
2023/11/30 10:35:05;;;;;;;7.60;5.60;;;;;;;2.26;71.73;96932.16;5058904;27;104464;-65
2023/11/30 10:37:36;;;;;;;;;;;;;;;2.31;70.33;96930.69;5057026;27;103216;-67
2023/11/30 10:40:10;;;;;;;8.30;5.45;;;;;;;2.51;70.97;96930.41;5049982;27;102732;-67
2023/11/30 10:42:49;;;;;;;8.32;6.18;;;;;;;2.53;69.87;96925.00;5053410;27;102897;-68
2023/11/30 10:45:20;;;;;;;10.02;6.40;;;;;;;2.58;70.70;96930.56;5065359;27;104345;-68
2023/11/30 10:47:58;;;;;;;9.00;6.57;;;;;;;2.73;69.62;96909.88;5058841;27;103303;-68
2023/11/30 10:50:26;;;;;;;12.10;6.20;;;;;;;2.87;69.74;96917.06;5038585;27;102759;-68
2023/11/30 10:53:01;;;;;;;12.15;7.35;;;;;;;2.95;70.08;96911.81;5051928;27;103119;-66
2023/11/30 10:55:32;;;;;;;10.18;7.45;;;;;;;2.97;69.50;96911.66;5058411;27;103549;-65
2023/11/30 10:58:05;;;;;;;12.68;6.25;;;;;;;3.00;69.09;96900.88;5039215;27;104301;-68
2023/11/30 11:00:34;;;;;;;16.40;7.35;;;;;;;3.08;69.07;96898.25;5052993;27;102693;-68
2023/11/30 11:03:11;;;;;;;13.52;7.88;;;;;;;3.11;69.03;96897.91;5053677;27;103159;-68
2023/11/30 11:05:47;;;;;;;11.10;7.47;;;;;;;3.28;68.38;96892.66;5052157;27;103378;-67
2023/11/30 11:08:15;;;;;;;12.43;9.00;;;;;;;3.25;67.62;96895.59;5058182;27;103235;-65
2023/11/30 11:10:47;;;;;;;12.77;8.98;;;;;;;3.26;68.03;96894.63;5059663;27;103008;-65
2023/11/30 11:13:19;;;;;;;11.80;7.40;;;;;;;3.45;68.13;96893.44;5056554;27;102615;-65
2023/11/30 11:15:58;;;;;;;14.02;8.40;;;;;;;3.54;67.58;96891.59;5054793;27;103307;-67
2023/11/30 11:18:33;;;;;;;11.60;8.13;;;;;;;3.65;67.90;96899.94;5058799;27;103115;-65
2023/11/30 11:21:01;;;;;;;12.15;8.48;;;;;;;3.72;67.48;96901.88;5058174;27;103222;-66
2023/11/30 11:23:34;;;;;;;13.23;7.95;;;;;;;3.65;66.56;96909.59;5060082;27;104262;-65
2023/11/30 11:26:07;;;;;;;13.02;8.70;;;;;;;3.61;67.41;96908.28;5059854;27;103315;-67
2023/11/30 11:28:36;;;;;;;11.85;7.50;;;;;;;3.67;66.97;96910.25;5035294;27;103580;-66
2023/11/30 11:31:05;;;;;;;18.70;9.32;;;;;;;3.61;66.44;96908.28;5059357;27;104170;-65
2023/11/30 11:33:33;;;;;;;12.30;7.78;;;;;;;3.65;66.84;96904.34;5050734;27;102838;-65
2023/11/30 11:36:02;;;;;;;11.38;8.23;;;;;;;3.74;66.25;96900.72;5035744;27;103174;-65